createdAt,value
2019-05-05T00:02:46.041Z,93943.54
2019-05-05T00:05:30.432Z,93948.70
2019-05-05T00:08:01.761Z,93945.72
2019-05-05T00:10:46.041Z,93943.88
2019-05-05T00:13:26.881Z,93946.22
2019-05-05T00:16:17.080Z,93930.30
2019-05-05T00:18:49.061Z,93938.34
2019-05-05T00:21:20.091Z,93948.06
2019-05-05T00:23:52.307Z,93943.44
2019-05-05T00:26:24.368Z,93938.20
2019-05-05T00:28:55.680Z,93950.55
2019-05-05T00:31:27.122Z,93947.59
2019-05-05T00:33:58.477Z,93929.92
2019-05-05T00:36:29.737Z,93961.61
2019-05-05T00:39:01.246Z,93961.68
2019-05-05T00:41:34.606Z,93951.82
2019-05-05T00:44:06.546Z,93959.84
2019-05-05T00:46:56.715Z,93945.62
2019-05-05T00:49:28.876Z,93947.93
2019-05-05T00:52:00.260Z,93936.63
2019-05-05T00:54:31.872Z,93962.31
2019-05-05T00:57:04.434Z,93957.59
2019-05-05T00:59:35.589Z,93948.13
2019-05-05T01:02:28.299Z,93950.78
2019-05-05T01:05:12.147Z,93952.73
2019-05-05T01:07:44.381Z,93933.23
2019-05-05T01:10:15.632Z,93954.20
2019-05-05T01:12:47.023Z,93936.19
2019-05-05T01:15:18.231Z,93931.39
2019-05-05T01:17:49.520Z,93929.48
2019-05-05T01:20:20.967Z,93923.28
2019-05-05T01:22:52.229Z,93921.17
2019-05-05T01:25:25.377Z,93918.92
2019-05-05T01:27:56.844Z,93919.73
2019-05-05T01:30:31.220Z,93931.19
2019-05-05T01:33:09.514Z,93913.30
2019-05-05T01:35:41.172Z,93925.97
2019-05-05T01:38:18.636Z,93915.30
2019-05-05T01:40:57.798Z,93923.48
2019-05-05T01:43:29.355Z,93914.80
2019-05-05T01:46:00.806Z,93928.18
2019-05-05T01:48:32.317Z,93926.34
2019-05-05T01:51:05.009Z,93922.38
2019-05-05T01:53:37.686Z,93928.45
2019-05-05T01:56:09.109Z,93916.86
2019-05-05T01:58:40.637Z,93923.45
2019-05-05T02:01:12.181Z,93921.23
2019-05-05T02:03:44.306Z,93910.77
2019-05-05T02:06:15.834Z,93915.20
2019-05-05T02:08:47.202Z,93914.60
2019-05-05T02:11:18.749Z,93905.34
2019-05-05T02:13:50.095Z,93907.30
2019-05-05T02:16:21.597Z,93906.05
2019-05-05T02:18:54.438Z,93910.36
2019-05-05T02:21:26.872Z,93906.75
2019-05-05T02:23:58.801Z,93914.80
2019-05-05T02:26:30.515Z,93900.48
2019-05-05T02:29:19.682Z,93902.84
2019-05-05T02:32:08.795Z,93901.55
2019-05-05T02:34:46.132Z,93908.32
2019-05-05T02:37:18.151Z,93904.41
2019-05-05T02:39:58.923Z,93904.41
2019-05-05T02:42:26.389Z,93890.30
2019-05-05T02:45:05.077Z,93888.94
2019-05-05T02:47:38.290Z,93870.66
2019-05-05T02:50:09.906Z,93870.66
2019-05-05T02:52:44.190Z,93880.84
2019-05-05T02:55:16.163Z,93879.41
2019-05-05T02:57:48.221Z,93870.77
2019-05-05T03:00:38.895Z,93875.07
2019-05-05T03:03:13.399Z,93867.66
2019-05-05T03:05:44.874Z,93864.82
2019-05-05T03:08:16.776Z,93858.30
2019-05-05T03:10:48.930Z,93858.21
2019-05-05T03:13:21.863Z,93858.21
2019-05-05T03:15:58.301Z,93855.49
2019-05-05T03:18:30.381Z,93857.91
2019-05-05T03:21:07.147Z,93858.97
2019-05-05T03:23:36.749Z,93874.84
2019-05-05T03:26:08.550Z,93858.55
2019-05-05T03:28:47.294Z,93858.66
2019-05-05T03:31:19.348Z,93849.27
2019-05-05T03:33:54.700Z,93843.85
2019-05-05T03:36:25.889Z,93850.47
2019-05-05T03:38:59.420Z,93850.47
2019-05-05T03:41:43.858Z,93837.76
2019-05-05T03:44:34.297Z,93837.76
2019-05-05T03:47:06.323Z,93844.53
2019-05-05T03:49:37.826Z,93836.64
2019-05-05T03:52:09.590Z,93830.89
2019-05-05T03:54:41.251Z,93835.16
2019-05-05T03:57:14.107Z,93827.28
2019-05-05T03:59:45.634Z,93825.28
2019-05-05T04:02:25.994Z,93825.68
2019-05-05T04:04:58.577Z,93833.92
2019-05-05T04:07:30.291Z,93841.23
2019-05-05T04:10:03.733Z,93845.31
2019-05-05T04:12:35.639Z,93846.89
2019-05-05T04:15:07.354Z,93846.62
2019-05-05T04:17:56.302Z,93853.52
2019-05-05T04:20:45.785Z,93853.25
2019-05-05T04:23:17.205Z,93857.62
2019-05-05T04:25:48.536Z,93864.35
2019-05-05T04:28:19.940Z,93861.50
2019-05-05T04:30:51.303Z,93876.11
2019-05-05T04:33:23.660Z,93885.80
2019-05-05T04:35:55.121Z,93890.63
2019-05-05T04:38:26.395Z,93892.33
2019-05-05T04:40:57.847Z,93889.78
2019-05-05T04:43:29.173Z,93900.98
2019-05-05T04:46:00.453Z,93904.84
2019-05-05T04:48:43.912Z,93907.31
2019-05-05T04:51:24.376Z,93908.12
2019-05-05T04:54:15.869Z,93903.41
2019-05-05T04:56:47.234Z,93897.50
2019-05-05T04:59:18.345Z,93900.31
2019-05-05T05:01:51.566Z,93897.34
2019-05-05T05:04:30.830Z,93895.22
2019-05-05T05:07:04.471Z,93897.06
2019-05-05T05:09:35.369Z,93905.45
2019-05-05T05:12:06.721Z,93901.08
2019-05-05T05:14:37.930Z,93902.19
2019-05-05T05:17:14.165Z,93892.51
2019-05-05T05:19:45.626Z,93897.41
2019-05-05T05:22:16.652Z,93900.23
2019-05-05T05:24:47.936Z,93892.73
2019-05-05T05:27:19.385Z,93893.80
2019-05-05T05:29:50.783Z,93895.14
2019-05-05T05:32:24.533Z,93885.27
2019-05-05T05:34:56.364Z,93882.06
2019-05-05T05:37:27.639Z,93885.19
2019-05-05T05:40:08.510Z,93882.47
2019-05-05T05:42:39.939Z,93874.06
2019-05-05T05:45:48.623Z,93871.39
2019-05-05T05:48:38.924Z,93875.59
2019-05-05T05:51:14.500Z,93865.64
2019-05-05T05:53:46.818Z,93871.07
2019-05-05T05:56:17.904Z,93880.88
2019-05-05T05:58:49.000Z,93875.09
2019-05-05T06:01:20.754Z,93872.34
2019-05-05T06:03:53.635Z,93864.38
2019-05-05T06:06:25.411Z,93862.34
2019-05-05T06:08:58.525Z,93847.66
2019-05-05T06:11:30.397Z,93832.64
2019-05-05T06:14:03.979Z,93835.18
2019-05-05T06:16:37.258Z,93847.02
2019-05-05T06:19:10.296Z,93834.08
2019-05-05T06:21:43.852Z,93846.80
2019-05-05T06:24:14.361Z,93858.92
2019-05-05T06:26:45.558Z,93858.92
2019-05-05T06:29:16.787Z,93875.16
2019-05-05T06:31:47.884Z,93879.49
2019-05-05T06:34:18.916Z,93880.91
2019-05-05T06:36:50.019Z,93881.16
2019-05-05T06:39:21.194Z,93894.30
2019-05-05T06:42:01.310Z,93892.00
2019-05-05T06:44:55.460Z,93893.44
2019-05-05T06:47:29.533Z,93890.08
2019-05-05T06:50:00.998Z,93894.80
2019-05-05T06:52:43.700Z,93918.59
2019-05-05T06:55:06.169Z,93913.95
2019-05-05T06:57:37.694Z,93922.23
2019-05-05T07:00:09.466Z,93921.59
2019-05-05T07:02:41.087Z,93909.81
2019-05-05T07:05:14.282Z,93914.84
2019-05-05T07:07:45.297Z,93901.14
2019-05-05T07:10:16.885Z,93891.77
2019-05-05T07:12:48.118Z,93874.15
2019-05-05T07:15:19.619Z,93888.27
2019-05-05T07:17:50.827Z,93871.58
2019-05-05T07:20:24.027Z,93885.52
2019-05-05T07:23:01.418Z,93887.50
2019-05-05T07:25:39.884Z,93891.22
2019-05-05T07:28:00.817Z,93879.79
2019-05-05T07:30:33.572Z,93891.94
2019-05-05T07:33:05.126Z,93891.94
2019-05-05T07:35:55.368Z,93894.67
2019-05-05T07:38:17.855Z,93895.33
2019-05-05T07:40:48.909Z,93895.33
2019-05-05T07:43:20.333Z,93900.17
2019-05-05T07:45:53.885Z,93894.43
2019-05-05T07:48:24.618Z,93890.91
2019-05-05T07:51:01.936Z,93889.80
2019-05-05T07:53:28.324Z,93900.77
2019-05-05T07:55:59.633Z,93911.23
2019-05-05T07:58:30.901Z,93904.44
2019-05-05T08:01:02.056Z,93873.09
2019-05-05T08:03:33.856Z,93906.50
2019-05-05T08:06:05.427Z,93888.31
2019-05-05T08:08:37.356Z,93871.88
2019-05-05T08:11:08.523Z,93871.88
2019-05-05T08:13:39.718Z,93890.00
2019-05-05T08:16:29.899Z,93881.47
2019-05-05T08:19:13.762Z,93884.97
2019-05-05T08:21:45.157Z,93883.22
2019-05-05T08:24:33.735Z,93889.86
2019-05-05T08:27:34.000Z,93889.22
2019-05-05T08:30:15.314Z,93891.95
2019-05-05T08:32:46.949Z,93886.71
2019-05-05T08:35:18.394Z,93892.88
2019-05-05T08:37:50.848Z,93894.70
2019-05-05T08:40:24.014Z,93905.47
2019-05-05T08:42:55.192Z,93894.12
2019-05-05T08:45:26.825Z,93898.59
2019-05-05T08:47:58.448Z,93901.23
2019-05-05T08:50:29.903Z,93906.50
2019-05-05T08:53:01.222Z,93901.80
2019-05-05T08:55:34.590Z,93899.72
2019-05-05T08:58:06.203Z,93899.72
2019-05-05T09:00:37.573Z,93906.96
2019-05-05T09:03:09.142Z,93899.52
2019-05-05T09:05:40.277Z,93922.50
2019-05-05T09:08:13.783Z,93906.94
2019-05-05T09:10:44.893Z,93904.34
2019-05-05T09:13:16.276Z,93891.76
2019-05-05T09:15:47.572Z,93888.77
2019-05-05T09:18:18.593Z,93888.23
2019-05-05T09:20:49.684Z,93890.66
2019-05-05T09:23:20.662Z,93882.80
2019-05-05T09:26:04.437Z,93872.42
2019-05-05T09:28:40.083Z,93883.83
2019-05-05T09:31:10.996Z,93881.36
2019-05-05T09:33:44.188Z,93873.41
2019-05-05T09:36:15.149Z,93863.59
2019-05-05T09:38:46.326Z,93859.17
2019-05-05T09:41:17.538Z,93857.58
2019-05-05T09:43:48.653Z,93872.61
2019-05-05T09:46:19.718Z,93867.11
2019-05-05T09:48:51.272Z,93855.54
2019-05-05T09:51:24.152Z,93855.96
2019-05-05T09:53:55.655Z,93859.80
2019-05-05T09:56:26.995Z,93851.48
2019-05-05T09:58:58.206Z,93847.41
2019-05-05T10:01:29.390Z,93844.48
2019-05-05T10:04:10.602Z,93843.95
2019-05-05T10:06:45.514Z,93830.93
2019-05-05T10:09:15.178Z,93840.50
2019-05-05T10:11:46.430Z,93834.28
2019-05-05T10:14:17.724Z,93841.73
2019-05-05T10:16:49.324Z,93839.00
2019-05-05T10:19:20.644Z,93833.44
2019-05-05T10:21:51.963Z,93835.45
2019-05-05T10:24:31.031Z,93834.41
2019-05-05T10:27:00.386Z,93832.26
2019-05-05T10:29:31.776Z,93824.81
2019-05-05T10:32:04.554Z,93825.61
2019-05-05T10:34:35.895Z,93837.33
2019-05-05T10:37:07.223Z,93834.97
2019-05-05T10:39:44.017Z,93831.24
2019-05-05T10:42:15.357Z,93831.73
2019-05-05T10:44:47.611Z,93832.66
2019-05-05T10:47:18.829Z,93838.09
2019-05-05T10:49:50.059Z,93845.17
2019-05-05T10:52:21.166Z,93847.20
2019-05-05T10:54:54.695Z,93844.95
2019-05-05T10:57:25.132Z,93836.18
2019-05-05T11:00:09.371Z,93832.84
2019-05-05T11:02:29.617Z,93842.61
2019-05-05T11:05:00.842Z,93851.08
2019-05-05T11:07:34.096Z,93850.18
2019-05-05T11:10:05.982Z,93845.12
2019-05-05T11:12:37.121Z,93846.05
2019-05-05T11:15:10.136Z,93826.24
2019-05-05T11:17:41.355Z,93827.67
2019-05-05T11:20:14.425Z,93823.70
2019-05-05T11:22:45.609Z,93824.95
2019-05-05T11:25:17.050Z,93828.19
2019-05-05T11:27:48.222Z,93817.38
2019-05-05T11:30:26.916Z,93813.63
2019-05-05T11:33:34.279Z,93814.72
2019-05-05T11:36:16.466Z,93812.02
2019-05-05T11:38:47.721Z,93809.40
2019-05-05T11:41:19.073Z,93795.47
2019-05-05T11:43:50.153Z,93808.20
2019-05-05T11:46:21.387Z,93805.06
2019-05-05T11:48:54.421Z,93800.94
2019-05-05T11:51:26.134Z,93797.67
2019-05-05T11:53:57.414Z,93795.25
2019-05-05T11:56:28.900Z,93800.16
2019-05-05T11:59:00.112Z,93800.99
2019-05-05T12:01:31.322Z,93799.66
2019-05-05T12:04:04.373Z,93800.33
2019-05-05T12:06:36.017Z,93794.42
2019-05-05T12:09:13.954Z,93785.70
2019-05-05T12:11:45.186Z,93783.77
2019-05-05T12:14:18.945Z,93774.31
2019-05-05T12:16:49.958Z,93776.85
2019-05-05T12:19:21.346Z,93781.23
2019-05-05T12:21:54.574Z,93794.58
2019-05-05T12:24:29.713Z,93790.45
2019-05-05T12:27:24.615Z,93788.05
2019-05-05T12:29:59.994Z,93777.40
2019-05-05T12:32:31.432Z,93784.33
2019-05-05T12:35:04.233Z,93786.81
2019-05-05T12:37:35.480Z,93779.55
2019-05-05T12:40:08.176Z,93771.19
2019-05-05T12:42:39.527Z,93771.71
2019-05-05T12:45:14.086Z,93772.00
2019-05-05T12:48:10.068Z,93773.17
2019-05-05T12:50:41.182Z,93777.53
2019-05-05T12:53:14.406Z,93763.63
2019-05-05T12:55:45.407Z,93764.02
2019-05-05T12:58:16.930Z,93765.14
2019-05-05T13:00:57.392Z,93764.24
2019-05-05T13:03:28.472Z,93762.03
2019-05-05T13:05:59.969Z,93768.43
2019-05-05T13:08:33.891Z,93774.56
2019-05-05T13:11:04.883Z,93767.55
2019-05-05T13:13:36.359Z,93759.52
2019-05-05T13:16:07.477Z,93766.63
2019-05-05T13:18:38.921Z,93763.03
2019-05-05T13:21:41.179Z,93763.66
2019-05-05T13:24:40.461Z,93768.65
2019-05-05T13:27:11.525Z,93772.14
2019-05-05T13:29:44.278Z,93760.41
2019-05-05T13:32:15.597Z,93756.33
2019-05-05T13:34:46.570Z,93756.85
2019-05-05T13:37:18.013Z,93755.31
2019-05-05T13:39:49.237Z,93750.87
2019-05-05T13:42:20.405Z,93745.61
2019-05-05T13:45:03.975Z,93750.39
2019-05-05T13:47:35.326Z,93750.77
2019-05-05T13:50:14.188Z,93752.19
2019-05-05T13:52:45.776Z,93746.14
2019-05-05T13:55:17.270Z,93740.68
2019-05-05T13:57:48.885Z,93748.47
2019-05-05T14:00:20.681Z,93755.58
2019-05-05T14:02:51.841Z,93761.54
2019-05-05T14:05:24.036Z,93772.00
2019-05-05T14:07:55.523Z,93768.53
2019-05-05T14:10:26.904Z,93759.35
2019-05-05T14:12:58.983Z,93763.59
2019-05-05T14:15:30.256Z,93759.60
2019-05-05T14:18:03.674Z,93769.34
2019-05-05T14:20:34.795Z,93764.15
2019-05-05T14:23:05.916Z,93770.19
2019-05-05T14:25:37.453Z,93764.89
2019-05-05T14:28:08.748Z,93768.39
2019-05-05T14:30:54.562Z,93764.70
2019-05-05T14:33:28.550Z,93752.96
2019-05-05T14:36:25.863Z,93749.48
2019-05-05T14:38:58.288Z,93752.13
2019-05-05T14:41:29.604Z,93756.22
2019-05-05T14:44:00.736Z,93755.67
2019-05-05T14:46:33.923Z,93755.75
2019-05-05T14:49:05.816Z,93753.83
2019-05-05T14:51:37.283Z,93760.47
2019-05-05T14:54:10.804Z,93763.89
2019-05-05T14:56:43.891Z,93768.59
2019-05-05T14:59:14.583Z,93770.67
2019-05-05T15:01:46.074Z,93769.46
2019-05-05T15:04:19.045Z,93762.33
2019-05-05T15:07:00.352Z,93759.06
2019-05-05T15:09:54.655Z,93770.23
2019-05-05T15:12:38.859Z,93778.79
2019-05-05T15:15:10.191Z,93775.67
2019-05-05T15:17:41.217Z,93769.77
2019-05-05T15:20:13.985Z,93758.34
2019-05-05T15:22:45.196Z,93771.14
2019-05-05T15:25:16.558Z,93768.12
2019-05-05T15:27:48.143Z,93781.02
2019-05-05T15:30:19.375Z,93772.71
2019-05-05T15:32:50.561Z,93777.47
2019-05-05T15:35:21.936Z,93778.55
2019-05-05T15:37:54.155Z,93758.43
2019-05-05T15:40:25.533Z,93750.27
2019-05-05T15:42:56.663Z,93745.64
2019-05-05T15:45:28.052Z,93756.16
2019-05-05T15:47:59.478Z,93757.77
2019-05-05T15:50:30.798Z,93772.41
2019-05-05T15:53:03.805Z,93779.30
2019-05-05T15:55:35.259Z,93765.16
2019-05-05T15:58:06.604Z,93752.41
2019-05-05T16:00:37.769Z,93759.09
2019-05-05T16:03:09.286Z,93770.45
2019-05-05T16:05:40.540Z,93768.36
2019-05-05T16:08:11.629Z,93773.37
2019-05-05T16:10:44.020Z,93781.83
2019-05-05T16:13:15.645Z,93771.83
2019-05-05T16:16:05.779Z,93782.39
2019-05-05T16:19:05.250Z,93795.53
2019-05-05T16:21:40.693Z,93801.14
2019-05-05T16:24:20.602Z,93798.40
2019-05-05T16:26:55.231Z,93804.92
2019-05-05T16:29:24.408Z,93800.62
2019-05-05T16:31:55.791Z,93801.30
2019-05-05T16:34:26.952Z,93808.28
2019-05-05T16:36:58.023Z,93818.83
2019-05-05T16:39:29.190Z,93822.98
2019-05-05T16:42:00.445Z,93825.48
2019-05-05T16:44:33.992Z,93823.84
2019-05-05T16:47:04.871Z,93816.03
2019-05-05T16:49:36.157Z,93820.54
2019-05-05T16:52:14.584Z,93818.42
2019-05-05T16:55:05.630Z,93830.77
2019-05-05T16:57:37.125Z,93831.31
2019-05-05T17:00:08.750Z,93825.91
2019-05-05T17:02:39.893Z,93816.46
2019-05-05T17:05:13.629Z,93824.05
2019-05-05T17:07:44.564Z,93824.05
2019-05-05T17:10:15.950Z,93824.05
2019-05-05T17:12:47.536Z,93824.05
2019-05-05T17:15:46.685Z,93823.11
2019-05-05T17:18:41.876Z,93823.11
2019-05-05T17:21:21.873Z,93829.23
2019-05-05T17:23:53.954Z,93823.02
2019-05-05T17:26:25.308Z,93822.34
2019-05-05T17:28:56.647Z,93831.12
2019-05-05T17:31:27.804Z,93831.36
2019-05-05T17:33:59.244Z,93828.13
2019-05-05T17:36:30.531Z,93822.69
2019-05-05T17:39:01.666Z,93833.50
2019-05-05T17:41:53.876Z,93829.14
2019-05-05T17:44:44.281Z,93838.83
2019-05-05T17:47:25.250Z,93834.79
2019-05-05T17:50:08.783Z,93838.22
2019-05-05T17:52:47.085Z,93845.58
2019-05-05T17:55:29.087Z,93841.05
2019-05-05T17:58:02.666Z,93845.18
2019-05-05T18:00:36.611Z,93852.73
2019-05-05T18:03:08.128Z,93854.66
2019-05-05T18:05:56.957Z,93862.70
2019-05-05T18:08:53.775Z,93859.33
2019-05-05T18:11:30.255Z,93856.67
2019-05-05T18:14:05.529Z,93867.58
2019-05-05T18:16:36.552Z,93873.81
2019-05-05T18:19:07.798Z,93888.09
2019-05-05T18:21:39.170Z,93887.03
2019-05-05T18:24:10.131Z,93901.04
2019-05-05T18:26:43.435Z,93890.34
2019-05-05T18:29:14.560Z,93900.95
2019-05-05T18:31:45.936Z,93905.06
2019-05-05T18:34:17.099Z,93905.06
2019-05-05T18:36:48.206Z,93903.08
2019-05-05T18:39:19.620Z,93912.81
2019-05-05T18:42:09.734Z,93912.81
2019-05-05T18:44:44.481Z,93925.39
2019-05-05T18:47:19.403Z,93925.39
2019-05-05T18:49:53.962Z,93915.44
2019-05-05T18:52:25.319Z,93919.44
2019-05-05T18:54:56.307Z,93924.41
2019-05-05T18:57:27.354Z,93917.61
2019-05-05T18:59:58.476Z,93911.72
2019-05-05T19:02:44.270Z,93911.28
2019-05-05T19:05:23.714Z,93903.56
2019-05-05T19:08:01.454Z,93907.84
2019-05-05T19:10:33.719Z,93912.52
2019-05-05T19:13:05.194Z,93900.58
2019-05-05T19:15:36.744Z,93920.82
2019-05-05T19:18:08.147Z,93920.82
2019-05-05T19:20:54.240Z,93900.33
2019-05-05T19:23:25.345Z,93897.77
2019-05-05T19:25:56.480Z,93901.09
2019-05-05T19:28:40.974Z,93901.09
2019-05-05T19:31:00.430Z,93896.97
2019-05-05T19:33:33.922Z,93910.05
2019-05-05T19:36:05.030Z,93888.05
2019-05-05T19:38:36.131Z,93914.45
2019-05-05T19:41:07.079Z,93914.45
2019-05-05T19:43:54.858Z,93896.55
2019-05-05T19:46:37.845Z,93915.91
2019-05-05T19:49:18.417Z,93912.58
2019-05-05T19:51:50.135Z,93921.89
2019-05-05T19:54:21.951Z,93921.89
2019-05-05T19:56:54.246Z,93917.27
2019-05-05T19:59:25.391Z,93924.01
2019-05-05T20:01:56.542Z,93915.27
2019-05-05T20:04:27.864Z,93924.06
2019-05-05T20:06:59.237Z,93924.06
2019-05-05T20:09:30.653Z,93919.14
2019-05-05T20:12:03.870Z,93915.39
2019-05-05T20:14:36.324Z,93909.14
2019-05-05T20:17:16.570Z,93909.67
2019-05-05T20:19:47.673Z,93913.95
2019-05-05T20:22:18.823Z,93913.95
2019-05-05T20:24:49.758Z,93918.63
2019-05-05T20:27:21.141Z,93914.69
2019-05-05T20:29:52.321Z,93915.83
2019-05-05T20:32:34.141Z,93907.38
2019-05-05T20:35:17.942Z,93896.09
2019-05-05T20:38:14.352Z,93899.86
2019-05-05T20:40:47.120Z,93895.48
2019-05-05T20:43:18.327Z,93884.52
2019-05-05T20:45:49.376Z,93884.52
2019-05-05T20:48:20.314Z,93893.14
2019-05-05T20:50:51.331Z,93900.73
2019-05-05T20:53:24.547Z,93902.64
2019-05-05T20:55:55.016Z,93902.64
2019-05-05T20:58:26.251Z,93903.08
2019-05-05T21:00:57.480Z,93891.36
2019-05-05T21:03:28.764Z,93902.86
2019-05-05T21:05:59.825Z,93885.72
2019-05-05T21:08:30.893Z,93885.72
2019-05-05T21:11:04.176Z,93888.11
2019-05-05T21:13:35.214Z,93877.42
2019-05-05T21:16:06.227Z,93877.42
2019-05-05T21:18:37.197Z,93874.34
2019-05-05T21:21:13.740Z,93867.92
2019-05-05T21:23:49.628Z,93863.72
2019-05-05T21:26:25.031Z,93870.80
2019-05-05T21:28:56.088Z,93870.80
2019-05-05T21:31:27.324Z,93898.18
2019-05-05T21:33:58.377Z,93890.90
2019-05-05T21:36:29.757Z,93890.90
2019-05-05T21:39:01.215Z,93885.18
2019-05-05T21:41:34.054Z,93894.09
2019-05-05T21:44:05.623Z,93894.09
2019-05-05T21:46:36.910Z,93906.76
2019-05-05T21:49:08.160Z,93906.76
2019-05-05T21:52:07.359Z,93906.25
2019-05-05T21:55:04.709Z,93906.30
2019-05-05T21:58:01.034Z,93906.72
2019-05-05T22:00:49.630Z,93906.72
2019-05-05T22:03:27.772Z,93908.30
2019-05-05T22:05:58.930Z,93906.98
2019-05-05T22:08:29.986Z,93915.66
2019-05-05T22:11:03.770Z,93906.28
2019-05-05T22:13:36.603Z,93908.58
2019-05-05T22:16:08.380Z,93910.73
2019-05-05T22:18:40.110Z,93912.41
2019-05-05T22:21:45.173Z,93914.02
2019-05-05T22:24:17.444Z,93914.02
2019-05-05T22:26:48.830Z,93913.88
2019-05-05T22:29:20.343Z,93913.66
2019-05-05T22:31:51.709Z,93913.66
2019-05-05T22:34:24.118Z,93912.85
2019-05-05T22:36:55.602Z,93912.85
2019-05-05T22:39:27.034Z,93916.17
2019-05-05T22:41:58.405Z,93905.70
2019-05-05T22:44:29.519Z,93905.70
2019-05-05T22:47:00.764Z,93911.87
2019-05-05T22:49:31.888Z,93905.95
2019-05-05T22:52:03.845Z,93905.95
2019-05-05T22:54:35.088Z,93911.97
2019-05-05T22:57:06.331Z,93911.97
2019-05-05T22:59:37.391Z,93911.97
2019-05-05T23:02:08.919Z,93898.52
2019-05-05T23:04:57.891Z,93916.83
2019-05-05T23:07:31.103Z,93917.45
2019-05-05T23:10:04.462Z,93917.45
2019-05-05T23:12:35.210Z,93906.58
2019-05-05T23:15:09.447Z,93909.17
2019-05-05T23:17:56.384Z,93907.41
2019-05-05T23:21:02.521Z,93902.16
2019-05-05T23:23:50.366Z,93895.30
2019-05-05T23:26:22.306Z,93911.86
2019-05-05T23:28:53.820Z,93911.86
2019-05-05T23:31:24.938Z,93911.31
2019-05-05T23:33:56.093Z,93919.37
2019-05-05T23:36:27.537Z,93919.02
2019-05-05T23:38:58.902Z,93925.59
2019-05-05T23:41:31.205Z,93925.59
2019-05-05T23:44:03.664Z,93924.88
2019-05-05T23:46:34.999Z,93929.96
2019-05-05T23:49:06.469Z,93929.96
2019-05-05T23:51:38.858Z,93923.69
2019-05-05T23:54:10.362Z,93919.69
2019-05-05T23:56:41.619Z,93912.11
2019-05-05T23:59:13.705Z,93912.11
